sensor_id;sensor_type;location;lat;lon;timestamp;temperature;humidity
52203;DHT22;38173;52.850;6.970;2022-09-23T00:01:51;8.50;99.90
52203;DHT22;38173;52.850;6.970;2022-09-23T00:04:18;8.50;99.90
52203;DHT22;38173;52.850;6.970;2022-09-23T00:06:44;8.60;99.90
52203;DHT22;38173;52.850;6.970;2022-09-23T00:09:09;8.60;99.90
52203;DHT22;38173;52.850;6.970;2022-09-23T00:11:35;8.60;99.90
52203;DHT22;38173;52.850;6.970;2022-09-23T00:14:00;8.60;99.90
52203;DHT22;38173;52.850;6.970;2022-09-23T00:16:29;8.60;99.90
52203;DHT22;38173;52.850;6.970;2022-09-23T00:18:54;8.60;99.90
52203;DHT22;38173;52.850;6.970;2022-09-23T00:21:20;8.60;99.90
52203;DHT22;38173;52.850;6.970;2022-09-23T00:23:46;8.50;99.90
52203;DHT22;38173;52.850;6.970;2022-09-23T00:26:13;8.40;99.90
52203;DHT22;38173;52.850;6.970;2022-09-23T00:28:40;8.50;99.90
52203;DHT22;38173;52.850;6.970;2022-09-23T00:31:16;8.40;99.90
52203;DHT22;38173;52.850;6.970;2022-09-23T00:33:42;8.40;99.90
52203;DHT22;38173;52.850;6.970;2022-09-23T00:36:09;8.40;99.90
52203;DHT22;38173;52.850;6.970;2022-09-23T00:38:42;8.40;99.90
52203;DHT22;38173;52.850;6.970;2022-09-23T00:41:08;8.40;99.90
52203;DHT22;38173;52.850;6.970;2022-09-23T00:46:09;8.30;99.90
52203;DHT22;38173;52.850;6.970;2022-09-23T00:48:36;8.40;99.90
52203;DHT22;38173;52.850;6.970;2022-09-23T00:51:03;8.30;99.90
52203;DHT22;38173;52.850;6.970;2022-09-23T00:53:29;8.30;99.90
52203;DHT22;38173;52.850;6.970;2022-09-23T00:55:56;8.30;99.90
52203;DHT22;38173;52.850;6.970;2022-09-23T00:58:24;8.30;99.90
52203;DHT22;38173;52.850;6.970;2022-09-23T01:00:51;8.30;99.90
52203;DHT22;38173;52.850;6.970;2022-09-23T01:03:17;8.30;99.90
52203;DHT22;38173;52.850;6.970;2022-09-23T01:05:44;8.30;99.90
52203;DHT22;38173;52.850;6.970;2022-09-23T01:08:11;8.30;99.90
52203;DHT22;38173;52.850;6.970;2022-09-23T01:13:26;8.40;99.90
52203;DHT22;38173;52.850;6.970;2022-09-23T01:16:21;8.40;99.90
52203;DHT22;38173;52.850;6.970;2022-09-23T01:19:01;8.30;99.90
52203;DHT22;38173;52.850;6.970;2022-09-23T01:24:37;8.30;99.90
52203;DHT22;38173;52.850;6.970;2022-09-23T01:27:01;8.30;99.90
52203;DHT22;38173;52.850;6.970;2022-09-23T01:32:21;8.20;99.90
52203;DHT22;38173;52.850;6.970;2022-09-23T01:37:29;8.20;99.90
52203;DHT22;38173;52.850;6.970;2022-09-23T01:40:09;8.20;99.90
52203;DHT22;38173;52.850;6.970;2022-09-23T01:45:13;8.10;99.90
52203;DHT22;38173;52.850;6.970;2022-09-23T01:47:48;8.10;99.90
52203;DHT22;38173;52.850;6.970;2022-09-23T01:50:18;8.10;99.90
52203;DHT22;38173;52.850;6.970;2022-09-23T01:53:10;8.10;99.90
52203;DHT22;38173;52.850;6.970;2022-09-23T01:55:38;8.10;99.90
52203;DHT22;38173;52.850;6.970;2022-09-23T01:58:06;8.10;99.90
52203;DHT22;38173;52.850;6.970;2022-09-23T02:00:35;8.10;99.90
52203;DHT22;38173;52.850;6.970;2022-09-23T02:03:15;8.10;99.90
52203;DHT22;38173;52.850;6.970;2022-09-23T02:05:43;8.00;99.90
52203;DHT22;38173;52.850;6.970;2022-09-23T02:10:45;8.00;99.90
52203;DHT22;38173;52.850;6.970;2022-09-23T02:13:14;8.00;99.90
52203;DHT22;38173;52.850;6.970;2022-09-23T02:15:42;8.00;99.90
52203;DHT22;38173;52.850;6.970;2022-09-23T02:18:14;8.00;99.90
52203;DHT22;38173;52.850;6.970;2022-09-23T02:20:41;8.00;99.90
52203;DHT22;38173;52.850;6.970;2022-09-23T02:23:11;7.90;99.90
52203;DHT22;38173;52.850;6.970;2022-09-23T02:30:34;8.00;99.90
52203;DHT22;38173;52.850;6.970;2022-09-23T02:33:07;8.00;99.90
52203;DHT22;38173;52.850;6.970;2022-09-23T02:35:37;8.00;99.90
52203;DHT22;38173;52.850;6.970;2022-09-23T02:45:34;7.90;99.90
52203;DHT22;38173;52.850;6.970;2022-09-23T02:48:12;7.90;99.90
52203;DHT22;38173;52.850;6.970;2022-09-23T02:50:39;7.90;99.90
52203;DHT22;38173;52.850;6.970;2022-09-23T02:53:04;7.90;99.90
52203;DHT22;38173;52.850;6.970;2022-09-23T02:55:31;7.80;99.90
52203;DHT22;38173;52.850;6.970;2022-09-23T02:58:01;7.80;99.90
52203;DHT22;38173;52.850;6.970;2022-09-23T03:00:28;7.80;99.90
52203;DHT22;38173;52.850;6.970;2022-09-23T03:05:46;7.70;99.90
52203;DHT22;38173;52.850;6.970;2022-09-23T03:10:57;7.60;99.90
52203;DHT22;38173;52.850;6.970;2022-09-23T03:16:30;7.50;99.90
52203;DHT22;38173;52.850;6.970;2022-09-23T03:19:16;7.50;99.90
52203;DHT22;38173;52.850;6.970;2022-09-23T03:22:17;7.50;99.90
52203;DHT22;38173;52.850;6.970;2022-09-23T03:24:36;7.40;99.90
52203;DHT22;38173;52.850;6.970;2022-09-23T03:27:07;7.40;99.90
52203;DHT22;38173;52.850;6.970;2022-09-23T03:29:38;7.30;99.90
52203;DHT22;38173;52.850;6.970;2022-09-23T03:32:08;7.30;99.90
52203;DHT22;38173;52.850;6.970;2022-09-23T03:34:34;7.30;99.90
52203;DHT22;38173;52.850;6.970;2022-09-23T03:37:02;7.30;99.90
52203;DHT22;38173;52.850;6.970;2022-09-23T03:39:33;7.30;99.90
52203;DHT22;38173;52.850;6.970;2022-09-23T03:42:02;7.30;99.90
52203;DHT22;38173;52.850;6.970;2022-09-23T03:44:29;7.30;99.90
52203;DHT22;38173;52.850;6.970;2022-09-23T03:47:00;7.30;99.90
52203;DHT22;38173;52.850;6.970;2022-09-23T03:49:27;7.20;99.90
52203;DHT22;38173;52.850;6.970;2022-09-23T03:51:54;7.20;99.90
52203;DHT22;38173;52.850;6.970;2022-09-23T03:54:20;7.20;99.90
52203;DHT22;38173;52.850;6.970;2022-09-23T03:56:46;7.10;99.90
52203;DHT22;38173;52.850;6.970;2022-09-23T03:59:15;7.10;99.90
52203;DHT22;38173;52.850;6.970;2022-09-23T04:01:41;7.00;99.90
52203;DHT22;38173;52.850;6.970;2022-09-23T04:04:07;7.00;99.90
52203;DHT22;38173;52.850;6.970;2022-09-23T04:06:33;7.00;99.90
52203;DHT22;38173;52.850;6.970;2022-09-23T04:08:58;6.90;99.90
52203;DHT22;38173;52.850;6.970;2022-09-23T04:11:26;7.00;99.90
52203;DHT22;38173;52.850;6.970;2022-09-23T04:13:51;6.90;99.90
52203;DHT22;38173;52.850;6.970;2022-09-23T04:16:17;6.90;99.90
52203;DHT22;38173;52.850;6.970;2022-09-23T04:18:43;6.90;99.90
52203;DHT22;38173;52.850;6.970;2022-09-23T04:21:09;6.80;99.90
52203;DHT22;38173;52.850;6.970;2022-09-23T04:23:34;6.80;99.90
52203;DHT22;38173;52.850;6.970;2022-09-23T04:26:00;6.80;99.90
52203;DHT22;38173;52.850;6.970;2022-09-23T04:28:25;6.80;99.90
52203;DHT22;38173;52.850;6.970;2022-09-23T04:30:51;6.80;99.90
52203;DHT22;38173;52.850;6.970;2022-09-23T04:33:18;6.70;99.90
52203;DHT22;38173;52.850;6.970;2022-09-23T04:35:43;6.70;99.90
52203;DHT22;38173;52.850;6.970;2022-09-23T04:38:13;6.70;99.90
52203;DHT22;38173;52.850;6.970;2022-09-23T04:40:39;6.70;99.90
52203;DHT22;38173;52.850;6.970;2022-09-23T04:43:05;6.70;99.90
52203;DHT22;38173;52.850;6.970;2022-09-23T04:45:30;6.70;99.90
52203;DHT22;38173;52.850;6.970;2022-09-23T04:47:56;6.60;99.90
52203;DHT22;38173;52.850;6.970;2022-09-23T04:50:23;6.60;99.90
52203;DHT22;38173;52.850;6.970;2022-09-23T04:52:50;6.60;99.90
52203;DHT22;38173;52.850;6.970;2022-09-23T04:55:15;6.60;99.90
52203;DHT22;38173;52.850;6.970;2022-09-23T04:57:41;6.60;99.90
52203;DHT22;38173;52.850;6.970;2022-09-23T05:00:07;6.60;99.90
52203;DHT22;38173;52.850;6.970;2022-09-23T05:02:33;6.60;99.90
52203;DHT22;38173;52.850;6.970;2022-09-23T05:04:59;6.50;99.90
52203;DHT22;38173;52.850;6.970;2022-09-23T05:07:25;6.60;99.90
52203;DHT22;38173;52.850;6.970;2022-09-23T05:09:51;6.50;99.90
52203;DHT22;38173;52.850;6.970;2022-09-23T05:12:16;6.50;99.90
52203;DHT22;38173;52.850;6.970;2022-09-23T05:14:42;6.50;99.90
52203;DHT22;38173;52.850;6.970;2022-09-23T05:17:07;6.60;99.90
52203;DHT22;38173;52.850;6.970;2022-09-23T05:19:33;6.60;99.90
52203;DHT22;38173;52.850;6.970;2022-09-23T05:21:59;6.60;99.90
52203;DHT22;38173;52.850;6.970;2022-09-23T05:24:25;6.60;99.90
52203;DHT22;38173;52.850;6.970;2022-09-23T05:26:51;6.60;99.90
52203;DHT22;38173;52.850;6.970;2022-09-23T05:29:18;6.70;99.90
52203;DHT22;38173;52.850;6.970;2022-09-23T05:31:44;6.60;99.90
52203;DHT22;38173;52.850;6.970;2022-09-23T05:34:09;6.70;99.90
52203;DHT22;38173;52.850;6.970;2022-09-23T05:36:35;6.70;99.90
52203;DHT22;38173;52.850;6.970;2022-09-23T05:39:02;6.70;99.90
52203;DHT22;38173;52.850;6.970;2022-09-23T05:41:27;6.70;99.90
52203;DHT22;38173;52.850;6.970;2022-09-23T05:43:53;6.70;99.90
52203;DHT22;38173;52.850;6.970;2022-09-23T05:46:20;6.70;99.90
52203;DHT22;38173;52.850;6.970;2022-09-23T05:48:47;6.70;99.90
52203;DHT22;38173;52.850;6.970;2022-09-23T05:51:16;6.60;99.90
52203;DHT22;38173;52.850;6.970;2022-09-23T05:53:42;6.60;99.90
52203;DHT22;38173;52.850;6.970;2022-09-23T05:56:10;6.60;99.90
52203;DHT22;38173;52.850;6.970;2022-09-23T05:58:36;6.60;99.90
52203;DHT22;38173;52.850;6.970;2022-09-23T06:01:07;6.60;99.90
52203;DHT22;38173;52.850;6.970;2022-09-23T06:03:33;6.60;99.90
52203;DHT22;38173;52.850;6.970;2022-09-23T06:05:59;6.70;99.90
52203;DHT22;38173;52.850;6.970;2022-09-23T06:08:25;6.70;99.90
52203;DHT22;38173;52.850;6.970;2022-09-23T06:10:50;6.70;99.90
52203;DHT22;38173;52.850;6.970;2022-09-23T06:13:16;6.80;99.90
52203;DHT22;38173;52.850;6.970;2022-09-23T06:15:42;6.80;99.90
52203;DHT22;38173;52.850;6.970;2022-09-23T06:18:11;6.80;99.90
52203;DHT22;38173;52.850;6.970;2022-09-23T06:20:37;6.90;99.90
52203;DHT22;38173;52.850;6.970;2022-09-23T06:23:04;7.00;99.90
52203;DHT22;38173;52.850;6.970;2022-09-23T06:25:31;7.00;99.90
52203;DHT22;38173;52.850;6.970;2022-09-23T06:27:56;7.10;99.90
52203;DHT22;38173;52.850;6.970;2022-09-23T06:30:24;7.20;99.90
52203;DHT22;38173;52.850;6.970;2022-09-23T06:32:56;7.30;99.90
52203;DHT22;38173;52.850;6.970;2022-09-23T06:35:23;7.30;99.90
52203;DHT22;38173;52.850;6.970;2022-09-23T06:37:49;7.40;99.90
52203;DHT22;38173;52.850;6.970;2022-09-23T06:40:15;7.50;99.90
52203;DHT22;38173;52.850;6.970;2022-09-23T06:42:41;7.60;99.90
52203;DHT22;38173;52.850;6.970;2022-09-23T06:45:06;7.70;99.90
52203;DHT22;38173;52.850;6.970;2022-09-23T06:47:32;7.90;99.90
52203;DHT22;38173;52.850;6.970;2022-09-23T06:49:58;8.00;99.90
52203;DHT22;38173;52.850;6.970;2022-09-23T06:52:24;8.10;99.90
52203;DHT22;38173;52.850;6.970;2022-09-23T06:54:50;8.20;99.90
52203;DHT22;38173;52.850;6.970;2022-09-23T06:57:16;8.40;99.90
52203;DHT22;38173;52.850;6.970;2022-09-23T06:59:42;8.40;99.90
52203;DHT22;38173;52.850;6.970;2022-09-23T07:02:08;8.60;99.90
52203;DHT22;38173;52.850;6.970;2022-09-23T07:04:33;8.70;99.90
52203;DHT22;38173;52.850;6.970;2022-09-23T07:06:59;8.80;99.90
52203;DHT22;38173;52.850;6.970;2022-09-23T07:09:25;8.90;99.90
52203;DHT22;38173;52.850;6.970;2022-09-23T07:11:52;9.00;99.90
52203;DHT22;38173;52.850;6.970;2022-09-23T07:14:17;9.10;99.90
52203;DHT22;38173;52.850;6.970;2022-09-23T07:16:43;9.20;99.90
52203;DHT22;38173;52.850;6.970;2022-09-23T07:19:09;9.20;99.90
52203;DHT22;38173;52.850;6.970;2022-09-23T07:21:36;9.30;99.90
52203;DHT22;38173;52.850;6.970;2022-09-23T07:24:02;9.40;99.90
52203;DHT22;38173;52.850;6.970;2022-09-23T07:26:28;9.40;99.90
52203;DHT22;38173;52.850;6.970;2022-09-23T07:28:54;9.50;99.90
52203;DHT22;38173;52.850;6.970;2022-09-23T07:31:20;9.60;99.90
52203;DHT22;38173;52.850;6.970;2022-09-23T07:33:46;9.60;99.90
52203;DHT22;38173;52.850;6.970;2022-09-23T07:36:15;9.70;99.90
52203;DHT22;38173;52.850;6.970;2022-09-23T07:38:42;9.80;99.90
52203;DHT22;38173;52.850;6.970;2022-09-23T07:41:09;9.90;99.90
52203;DHT22;38173;52.850;6.970;2022-09-23T07:43:35;10.00;99.90
52203;DHT22;38173;52.850;6.970;2022-09-23T07:46:03;10.10;99.90
52203;DHT22;38173;52.850;6.970;2022-09-23T07:48:29;10.20;99.90
52203;DHT22;38173;52.850;6.970;2022-09-23T07:50:55;10.30;99.90
52203;DHT22;38173;52.850;6.970;2022-09-23T07:53:21;10.40;99.90
52203;DHT22;38173;52.850;6.970;2022-09-23T07:55:51;10.50;99.90
52203;DHT22;38173;52.850;6.970;2022-09-23T07:58:17;10.60;99.90
52203;DHT22;38173;52.850;6.970;2022-09-23T08:00:43;10.70;99.90
52203;DHT22;38173;52.850;6.970;2022-09-23T08:03:08;10.80;99.90
52203;DHT22;38173;52.850;6.970;2022-09-23T08:05:34;10.90;99.90
52203;DHT22;38173;52.850;6.970;2022-09-23T08:08:00;11.00;99.90
52203;DHT22;38173;52.850;6.970;2022-09-23T08:10:26;11.10;99.90
52203;DHT22;38173;52.850;6.970;2022-09-23T08:12:52;11.20;99.90
52203;DHT22;38173;52.850;6.970;2022-09-23T08:15:17;11.30;99.90
52203;DHT22;38173;52.850;6.970;2022-09-23T08:17:44;11.40;99.90
52203;DHT22;38173;52.850;6.970;2022-09-23T08:20:10;11.50;99.90
52203;DHT22;38173;52.850;6.970;2022-09-23T08:22:55;11.50;99.90
52203;DHT22;38173;52.850;6.970;2022-09-23T08:25:21;11.70;99.90
52203;DHT22;38173;52.850;6.970;2022-09-23T08:27:47;11.70;99.90
52203;DHT22;38173;52.850;6.970;2022-09-23T08:30:13;11.80;99.90
52203;DHT22;38173;52.850;6.970;2022-09-23T08:32:39;11.80;99.90
52203;DHT22;38173;52.850;6.970;2022-09-23T08:35:05;11.90;99.90
52203;DHT22;38173;52.850;6.970;2022-09-23T08:37:30;12.00;99.90
52203;DHT22;38173;52.850;6.970;2022-09-23T08:39:56;12.10;99.90
52203;DHT22;38173;52.850;6.970;2022-09-23T08:42:24;12.10;99.90
52203;DHT22;38173;52.850;6.970;2022-09-23T08:44:53;12.20;99.90
52203;DHT22;38173;52.850;6.970;2022-09-23T08:47:21;12.20;99.90
52203;DHT22;38173;52.850;6.970;2022-09-23T08:52:38;12.40;99.90
52203;DHT22;38173;52.850;6.970;2022-09-23T08:55:08;12.50;99.90
52203;DHT22;38173;52.850;6.970;2022-09-23T09:00:30;12.60;99.90
52203;DHT22;38173;52.850;6.970;2022-09-23T09:02:57;12.70;99.90
52203;DHT22;38173;52.850;6.970;2022-09-23T09:05:23;12.70;99.90
52203;DHT22;38173;52.850;6.970;2022-09-23T09:07:50;12.80;99.90
52203;DHT22;38173;52.850;6.970;2022-09-23T09:10:19;12.80;99.90
52203;DHT22;38173;52.850;6.970;2022-09-23T09:12:48;12.90;99.90
52203;DHT22;38173;52.850;6.970;2022-09-23T09:15:15;13.00;99.90
52203;DHT22;38173;52.850;6.970;2022-09-23T09:20:20;13.20;99.90
52203;DHT22;38173;52.850;6.970;2022-09-23T09:22:54;13.30;99.90
52203;DHT22;38173;52.850;6.970;2022-09-23T09:25:23;13.40;99.90
52203;DHT22;38173;52.850;6.970;2022-09-23T09:27:50;13.50;99.90
52203;DHT22;38173;52.850;6.970;2022-09-23T09:30:16;13.60;99.90
52203;DHT22;38173;52.850;6.970;2022-09-23T09:32:53;13.80;99.90
52203;DHT22;38173;52.850;6.970;2022-09-23T09:38:01;14.10;99.90
52203;DHT22;38173;52.850;6.970;2022-09-23T09:40:26;14.20;99.90
52203;DHT22;38173;52.850;6.970;2022-09-23T09:42:52;14.30;99.90
52203;DHT22;38173;52.850;6.970;2022-09-23T09:45:29;14.40;99.90
52203;DHT22;38173;52.850;6.970;2022-09-23T09:48:01;14.40;99.90
52203;DHT22;38173;52.850;6.970;2022-09-23T09:50:47;14.50;99.90
52203;DHT22;38173;52.850;6.970;2022-09-23T09:53:28;14.50;99.90
52203;DHT22;38173;52.850;6.970;2022-09-23T09:56:00;14.60;99.90
52203;DHT22;38173;52.850;6.970;2022-09-23T09:58:27;14.60;99.90
52203;DHT22;38173;52.850;6.970;2022-09-23T10:00:54;14.70;99.90
52203;DHT22;38173;52.850;6.970;2022-09-23T10:03:38;14.80;99.90
52203;DHT22;38173;52.850;6.970;2022-09-23T10:06:13;14.90;99.90
52203;DHT22;38173;52.850;6.970;2022-09-23T10:08:39;15.10;99.90
52203;DHT22;38173;52.850;6.970;2022-09-23T10:13:32;15.30;99.90
52203;DHT22;38173;52.850;6.970;2022-09-23T10:16:01;15.40;99.90
52203;DHT22;38173;52.850;6.970;2022-09-23T10:21:07;15.50;99.90
52203;DHT22;38173;52.850;6.970;2022-09-23T10:23:33;15.50;99.90
52203;DHT22;38173;52.850;6.970;2022-09-23T10:26:04;15.60;99.90
52203;DHT22;38173;52.850;6.970;2022-09-23T10:31:25;15.80;99.90
52203;DHT22;38173;52.850;6.970;2022-09-23T10:33:55;15.90;99.90
52203;DHT22;38173;52.850;6.970;2022-09-23T10:36:21;16.00;99.90
52203;DHT22;38173;52.850;6.970;2022-09-23T10:38:52;16.00;99.90
52203;DHT22;38173;52.850;6.970;2022-09-23T10:41:41;16.00;99.90
52203;DHT22;38173;52.850;6.970;2022-09-23T10:44:33;16.00;99.90
52203;DHT22;38173;52.850;6.970;2022-09-23T10:53:11;15.90;99.90
52203;DHT22;38173;52.850;6.970;2022-09-23T10:58:07;15.90;99.90
52203;DHT22;38173;52.850;6.970;2022-09-23T11:00:42;15.90;99.90
52203;DHT22;38173;52.850;6.970;2022-09-23T11:08:35;15.80;99.90
52203;DHT22;38173;52.850;6.970;2022-09-23T11:13:50;15.80;99.90
52203;DHT22;38173;52.850;6.970;2022-09-23T11:16:23;15.80;99.90
52203;DHT22;38173;52.850;6.970;2022-09-23T11:18:57;15.80;99.90
52203;DHT22;38173;52.850;6.970;2022-09-23T11:21:29;15.90;99.90
52203;DHT22;38173;52.850;6.970;2022-09-23T11:26:43;15.80;99.90
52203;DHT22;38173;52.850;6.970;2022-09-23T11:32:08;15.80;99.90
52203;DHT22;38173;52.850;6.970;2022-09-23T11:34:52;15.70;99.90
52203;DHT22;38173;52.850;6.970;2022-09-23T11:37:26;15.70;99.90
52203;DHT22;38173;52.850;6.970;2022-09-23T11:39:57;15.70;99.90
52203;DHT22;38173;52.850;6.970;2022-09-23T11:42:25;15.70;99.90
52203;DHT22;38173;52.850;6.970;2022-09-23T11:45:36;15.70;99.90
52203;DHT22;38173;52.850;6.970;2022-09-23T11:47:53;15.80;99.90
52203;DHT22;38173;52.850;6.970;2022-09-23T11:55:59;15.80;99.90
52203;DHT22;38173;52.850;6.970;2022-09-23T11:59:11;15.80;99.90
52203;DHT22;38173;52.850;6.970;2022-09-23T12:01:19;15.80;99.90
52203;DHT22;38173;52.850;6.970;2022-09-23T12:06:42;15.80;99.90
52203;DHT22;38173;52.850;6.970;2022-09-23T12:09:26;15.80;99.90
52203;DHT22;38173;52.850;6.970;2022-09-23T12:14:24;15.90;99.90
52203;DHT22;38173;52.850;6.970;2022-09-23T12:16:57;15.80;99.90
52203;DHT22;38173;52.850;6.970;2022-09-23T12:19:45;15.90;99.90
52203;DHT22;38173;52.850;6.970;2022-09-23T12:29:51;15.90;99.90
52203;DHT22;38173;52.850;6.970;2022-09-23T12:32:17;16.00;99.90
52203;DHT22;38173;52.850;6.970;2022-09-23T12:34:46;16.00;99.90
52203;DHT22;38173;52.850;6.970;2022-09-23T12:37:21;16.10;99.90
52203;DHT22;38173;52.850;6.970;2022-09-23T12:39:47;16.10;99.90
52203;DHT22;38173;52.850;6.970;2022-09-23T12:42:16;16.20;99.90
52203;DHT22;38173;52.850;6.970;2022-09-23T12:44:44;16.20;99.90
52203;DHT22;38173;52.850;6.970;2022-09-23T12:49:52;16.20;99.90
52203;DHT22;38173;52.850;6.970;2022-09-23T12:54:44;16.20;99.90
52203;DHT22;38173;52.850;6.970;2022-09-23T12:57:38;16.20;99.90
52203;DHT22;38173;52.850;6.970;2022-09-23T13:02:37;16.20;99.90
52203;DHT22;38173;52.850;6.970;2022-09-23T13:07:54;16.30;99.90
52203;DHT22;38173;52.850;6.970;2022-09-23T13:12:55;16.30;99.90
52203;DHT22;38173;52.850;6.970;2022-09-23T13:15:25;16.40;99.90
52203;DHT22;38173;52.850;6.970;2022-09-23T13:18:18;16.40;99.90
52203;DHT22;38173;52.850;6.970;2022-09-23T13:20:38;16.40;99.90
52203;DHT22;38173;52.850;6.970;2022-09-23T13:23:21;16.40;99.90
52203;DHT22;38173;52.850;6.970;2022-09-23T13:25:47;16.50;99.90
52203;DHT22;38173;52.850;6.970;2022-09-23T13:28:36;16.50;99.90
52203;DHT22;38173;52.850;6.970;2022-09-23T13:31:11;16.50;99.90
52203;DHT22;38173;52.850;6.970;2022-09-23T13:33:42;16.60;99.90
52203;DHT22;38173;52.850;6.970;2022-09-23T13:36:11;16.60;99.90
52203;DHT22;38173;52.850;6.970;2022-09-23T13:38:37;16.60;99.90
52203;DHT22;38173;52.850;6.970;2022-09-23T13:41:03;16.60;99.90
52203;DHT22;38173;52.850;6.970;2022-09-23T13:43:35;16.70;99.90
52203;DHT22;38173;52.850;6.970;2022-09-23T13:46:05;16.70;99.90
52203;DHT22;38173;52.850;6.970;2022-09-23T13:48:33;16.70;99.90
52203;DHT22;38173;52.850;6.970;2022-09-23T13:50:59;16.70;99.90
52203;DHT22;38173;52.850;6.970;2022-09-23T13:53:29;16.60;99.90
52203;DHT22;38173;52.850;6.970;2022-09-23T13:56:01;16.60;99.90
52203;DHT22;38173;52.850;6.970;2022-09-23T13:58:28;16.60;99.90
52203;DHT22;38173;52.850;6.970;2022-09-23T14:00:54;16.60;99.90
52203;DHT22;38173;52.850;6.970;2022-09-23T14:03:36;16.50;99.90
52203;DHT22;38173;52.850;6.970;2022-09-23T14:06:09;16.50;99.90
52203;DHT22;38173;52.850;6.970;2022-09-23T14:08:40;16.50;99.90
52203;DHT22;38173;52.850;6.970;2022-09-23T14:11:12;16.50;99.90
52203;DHT22;38173;52.850;6.970;2022-09-23T14:13:41;16.40;99.90
52203;DHT22;38173;52.850;6.970;2022-09-23T14:16:08;16.40;99.90
52203;DHT22;38173;52.850;6.970;2022-09-23T14:18:36;16.40;99.90
52203;DHT22;38173;52.850;6.970;2022-09-23T14:21:03;16.40;99.90
52203;DHT22;38173;52.850;6.970;2022-09-23T14:23:29;16.50;99.90
52203;DHT22;38173;52.850;6.970;2022-09-23T14:25:54;16.50;99.90
52203;DHT22;38173;52.850;6.970;2022-09-23T14:28:21;16.50;99.90
52203;DHT22;38173;52.850;6.970;2022-09-23T14:30:48;16.60;99.90
52203;DHT22;38173;52.850;6.970;2022-09-23T14:33:15;16.60;99.90
52203;DHT22;38173;52.850;6.970;2022-09-23T14:35:43;16.60;99.90
52203;DHT22;38173;52.850;6.970;2022-09-23T14:38:11;16.70;99.90
52203;DHT22;38173;52.850;6.970;2022-09-23T14:40:56;16.70;99.90
52203;DHT22;38173;52.850;6.970;2022-09-23T14:43:54;16.70;99.90
52203;DHT22;38173;52.850;6.970;2022-09-23T14:46:22;16.70;99.90
52203;DHT22;38173;52.850;6.970;2022-09-23T14:49:02;16.70;99.90
52203;DHT22;38173;52.850;6.970;2022-09-23T14:51:48;16.70;99.90
52203;DHT22;38173;52.850;6.970;2022-09-23T14:54:22;16.70;99.90
52203;DHT22;38173;52.850;6.970;2022-09-23T14:56:50;16.60;99.90
52203;DHT22;38173;52.850;6.970;2022-09-23T14:59:27;16.60;99.90
52203;DHT22;38173;52.850;6.970;2022-09-23T15:01:53;16.60;99.90
52203;DHT22;38173;52.850;6.970;2022-09-23T15:06:51;16.50;99.90
52203;DHT22;38173;52.850;6.970;2022-09-23T15:11:51;16.40;99.90
52203;DHT22;38173;52.850;6.970;2022-09-23T15:14:17;16.30;99.90
52203;DHT22;38173;52.850;6.970;2022-09-23T15:16:43;16.30;99.90
52203;DHT22;38173;52.850;6.970;2022-09-23T15:19:11;16.20;99.90
52203;DHT22;38173;52.850;6.970;2022-09-23T15:21:41;16.20;99.90
52203;DHT22;38173;52.850;6.970;2022-09-23T15:26:54;16.00;99.90
52203;DHT22;38173;52.850;6.970;2022-09-23T15:29:22;16.00;99.90
52203;DHT22;38173;52.850;6.970;2022-09-23T15:31:50;15.90;99.90
52203;DHT22;38173;52.850;6.970;2022-09-23T15:34:15;15.90;99.90
52203;DHT22;38173;52.850;6.970;2022-09-23T15:36:43;15.80;99.90
52203;DHT22;38173;52.850;6.970;2022-09-23T15:39:09;15.80;99.90
52203;DHT22;38173;52.850;6.970;2022-09-23T15:41:35;15.70;99.90
52203;DHT22;38173;52.850;6.970;2022-09-23T15:44:06;15.60;99.90
52203;DHT22;38173;52.850;6.970;2022-09-23T15:46:36;15.50;99.90
52203;DHT22;38173;52.850;6.970;2022-09-23T15:49:03;15.40;99.90
52203;DHT22;38173;52.850;6.970;2022-09-23T15:51:30;15.40;99.90
52203;DHT22;38173;52.850;6.970;2022-09-23T15:53:56;15.40;99.90
52203;DHT22;38173;52.850;6.970;2022-09-23T15:56:22;15.30;99.90
52203;DHT22;38173;52.850;6.970;2022-09-23T15:58:48;15.30;99.90
52203;DHT22;38173;52.850;6.970;2022-09-23T16:01:29;15.20;99.90
52203;DHT22;38173;52.850;6.970;2022-09-23T16:03:56;15.10;99.90
52203;DHT22;38173;52.850;6.970;2022-09-23T16:06:21;15.10;99.90
52203;DHT22;38173;52.850;6.970;2022-09-23T16:08:48;15.10;99.90
52203;DHT22;38173;52.850;6.970;2022-09-23T16:13:48;15.00;99.90
52203;DHT22;38173;52.850;6.970;2022-09-23T16:16:14;14.90;99.90
52203;DHT22;38173;52.850;6.970;2022-09-23T16:18:41;14.90;99.90
52203;DHT22;38173;52.850;6.970;2022-09-23T16:21:15;14.80;99.90
52203;DHT22;38173;52.850;6.970;2022-09-23T16:23:42;14.80;99.90
52203;DHT22;38173;52.850;6.970;2022-09-23T16:28:40;14.70;99.90
52203;DHT22;38173;52.850;6.970;2022-09-23T16:31:06;14.70;99.90
52203;DHT22;38173;52.850;6.970;2022-09-23T16:33:32;14.70;99.90
52203;DHT22;38173;52.850;6.970;2022-09-23T16:35:58;14.70;99.90
52203;DHT22;38173;52.850;6.970;2022-09-23T16:38:26;14.60;99.90
52203;DHT22;38173;52.850;6.970;2022-09-23T16:40:53;14.60;99.90
52203;DHT22;38173;52.850;6.970;2022-09-23T16:43:20;14.60;99.90
52203;DHT22;38173;52.850;6.970;2022-09-23T16:45:46;14.60;99.90
52203;DHT22;38173;52.850;6.970;2022-09-23T16:48:12;14.60;99.90
52203;DHT22;38173;52.850;6.970;2022-09-23T16:50:38;14.60;99.90
52203;DHT22;38173;52.850;6.970;2022-09-23T16:53:04;14.50;99.90
52203;DHT22;38173;52.850;6.970;2022-09-23T16:55:30;14.50;99.90
52203;DHT22;38173;52.850;6.970;2022-09-23T16:57:56;14.50;99.90
52203;DHT22;38173;52.850;6.970;2022-09-23T17:00:21;14.40;99.90
52203;DHT22;38173;52.850;6.970;2022-09-23T17:03:05;14.40;99.90
52203;DHT22;38173;52.850;6.970;2022-09-23T17:05:50;14.40;99.90
52203;DHT22;38173;52.850;6.970;2022-09-23T17:08:16;14.30;99.90
52203;DHT22;38173;52.850;6.970;2022-09-23T17:10:43;14.30;99.90
52203;DHT22;38173;52.850;6.970;2022-09-23T17:13:09;14.40;99.90
52203;DHT22;38173;52.850;6.970;2022-09-23T17:15:35;14.30;99.90
52203;DHT22;38173;52.850;6.970;2022-09-23T17:18:02;14.30;99.90
52203;DHT22;38173;52.850;6.970;2022-09-23T17:20:27;14.30;99.90
52203;DHT22;38173;52.850;6.970;2022-09-23T17:22:53;14.20;99.90
52203;DHT22;38173;52.850;6.970;2022-09-23T17:25:20;14.20;99.90
52203;DHT22;38173;52.850;6.970;2022-09-23T17:27:47;14.20;99.90
52203;DHT22;38173;52.850;6.970;2022-09-23T17:30:13;14.20;99.90
52203;DHT22;38173;52.850;6.970;2022-09-23T17:32:39;14.20;99.90
52203;DHT22;38173;52.850;6.970;2022-09-23T17:35:05;14.10;99.90
52203;DHT22;38173;52.850;6.970;2022-09-23T17:37:31;14.10;99.90
52203;DHT22;38173;52.850;6.970;2022-09-23T17:39:57;14.10;99.90
52203;DHT22;38173;52.850;6.970;2022-09-23T17:42:24;14.10;99.90
52203;DHT22;38173;52.850;6.970;2022-09-23T17:44:49;14.10;99.90
52203;DHT22;38173;52.850;6.970;2022-09-23T17:47:15;14.00;99.90
52203;DHT22;38173;52.850;6.970;2022-09-23T17:49:41;14.00;99.90
52203;DHT22;38173;52.850;6.970;2022-09-23T17:52:07;14.00;99.90
52203;DHT22;38173;52.850;6.970;2022-09-23T17:54:33;14.00;99.90